Time;durP1;ratioP1;P1;durP2;ratioP2;P2;SDS_P1;SDS_P2;PMS_P1;PMS_P2;Temp;Humidity;BMP_temperature;BMP_pressure;BME280_temperature;BME280_humidity;BME280_pressure;Samples;Min_cycle;Max_cycle;Signal;HPM_P1;HPM_P2
2022/03/28 00:01:52;;;;;;;11.02;5.90;;;7.90;99.90;;;;;;4990118;28;20121;-73
2022/03/28 00:04:18;;;;;;;10.25;5.43;;;7.90;99.90;;;;;;4958750;28;20085;-73
2022/03/28 00:06:43;;;;;;;10.02;5.75;;;7.80;99.90;;;;;;4990345;28;20164;-73
2022/03/28 00:09:09;;;;;;;10.50;5.40;;;7.80;99.90;;;;;;4992200;28;20042;-73
2022/03/28 00:11:35;;;;;;;8.80;5.68;;;7.80;99.90;;;;;;4989579;28;20045;-73
2022/03/28 00:14:01;;;;;;;9.60;5.60;;;7.80;99.90;;;;;;4994314;28;20117;-73
2022/03/28 00:16:27;;;;;;;9.43;5.72;;;7.80;99.90;;;;;;4992035;28;20129;-74
2022/03/28 00:18:52;;;;;;;13.05;6.10;;;7.90;99.90;;;;;;4973622;28;20082;-74
2022/03/28 00:21:19;;;;;;;13.15;6.05;;;8.30;99.90;;;;;;4974420;28;20077;-74
2022/03/28 00:23:46;;;;;;;12.98;6.10;;;7.90;99.90;;;;;;4976074;28;20050;-74
2022/03/28 00:26:12;;;;;;;14.10;6.15;;;7.90;99.90;;;;;;4972288;28;20100;-74
2022/03/28 00:28:37;;;;;;;10.38;6.05;;;7.90;99.90;;;;;;4991484;28;20042;-73
2022/03/28 00:31:03;;;;;;;15.30;6.47;;;7.90;99.90;;;;;;4974733;28;20047;-73
2022/03/28 00:33:29;;;;;;;12.35;6.07;;;7.80;99.90;;;;;;4975223;28;20061;-73
2022/03/28 00:35:55;;;;;;;10.55;5.85;;;7.80;99.90;;;;;;4974470;28;20054;-72
2022/03/28 00:38:20;;;;;;;11.80;5.80;;;7.80;99.90;;;;;;4972943;28;20046;-72
2022/03/28 00:40:46;;;;;;;9.07;5.72;;;7.80;99.90;;;;;;4973077;28;20132;-72
2022/03/28 00:43:12;;;;;;;9.98;5.43;;;7.80;99.90;;;;;;4990641;28;20053;-72
2022/03/28 00:45:41;;;;;;;10.45;5.45;;;7.80;99.90;;;;;;4990718;28;20042;-72
2022/03/28 00:48:09;;;;;;;7.88;4.85;;;7.70;99.90;;;;;;4991972;28;20046;-72
2022/03/28 00:50:35;;;;;;;11.88;4.70;;;8.20;99.90;;;;;;4973953;28;20101;-72
2022/03/28 00:53:02;;;;;;;10.50;4.75;;;7.70;99.90;;;;;;4989460;28;20148;-73
2022/03/28 00:55:28;;;;;;;6.82;5.07;;;7.70;99.90;;;;;;4990502;28;20329;-72
2022/03/28 00:57:53;;;;;;;7.47;4.70;;;7.80;99.90;;;;;;4977356;28;20053;-72
2022/03/28 01:00:19;;;;;;;9.07;5.10;;;7.70;99.90;;;;;;4990162;28;20086;-72
2022/03/28 01:02:46;;;;;;;8.63;4.45;;;7.70;99.90;;;;;;4991061;28;20085;-72
2022/03/28 01:05:12;;;;;;;7.65;5.03;;;7.70;99.90;;;;;;4990997;28;20042;-72
2022/03/28 01:07:39;;;;;;;8.88;4.97;;;7.70;99.90;;;;;;4956363;28;20061;-74
2022/03/28 01:10:05;;;;;;;8.57;4.90;;;7.60;99.90;;;;;;4972559;28;20038;-73
2022/03/28 01:12:32;;;;;;;9.00;4.80;;;7.60;99.90;;;;;;4972571;28;20401;-72
2022/03/28 01:14:59;;;;;;;10.05;4.70;;;7.50;99.90;;;;;;4989849;28;20050;-71
2022/03/28 01:20:09;;;;;;;6.30;4.50;;;7.50;99.90;;;;;;4989990;28;20105;-72
2022/03/28 01:22:36;;;;;;;9.13;5.10;;;7.50;99.90;;;;;;4969182;28;20123;-72
2022/03/28 01:25:05;;;;;;;9.57;5.07;;;8.40;99.90;;;;;;4969086;28;20428;-72
2022/03/28 01:27:31;;;;;;;9.15;4.93;;;7.50;99.90;;;;;;4969391;28;20562;-72
2022/03/28 01:29:57;;;;;;;10.15;5.15;;;7.70;99.90;;;;;;4972764;28;20456;-72
2022/03/28 01:32:23;;;;;;;11.02;5.45;;;7.50;99.90;;;;;;4971847;28;20053;-72
2022/03/28 01:34:48;;;;;;;10.43;5.30;;;7.50;99.90;;;;;;4970217;28;20107;-72
2022/03/28 01:37:14;;;;;;;11.00;5.53;;;7.50;99.90;;;;;;4971409;28;20043;-72
2022/03/28 01:39:40;;;;;;;10.02;5.53;;;7.50;99.90;;;;;;4971358;28;20050;-72
2022/03/28 01:42:06;;;;;;;9.77;6.10;;;7.50;99.90;;;;;;4968334;28;20568;-72
2022/03/28 01:44:31;;;;;;;13.10;6.05;;;7.50;99.90;;;;;;4970827;28;20506;-72
2022/03/28 01:46:57;;;;;;;9.18;6.13;;;7.50;99.90;;;;;;4970601;28;20057;-72
2022/03/28 01:49:22;;;;;;;14.07;6.10;;;7.40;99.90;;;;;;4960364;28;20039;-72
2022/03/28 01:51:49;;;;;;;11.50;6.65;;;7.50;99.90;;;;;;4970489;28;20552;-72
2022/03/28 01:54:16;;;;;;;10.75;6.43;;;7.50;99.90;;;;;;4971158;28;20129;-72
2022/03/28 01:56:42;;;;;;;9.70;6.15;;;7.40;99.90;;;;;;4950435;28;20048;-72
2022/03/28 01:59:09;;;;;;;14.50;6.80;;;7.40;99.90;;;;;;4970993;28;20035;-72
2022/03/28 02:01:36;;;;;;;12.93;6.88;;;7.40;99.90;;;;;;4969886;28;20047;-72
2022/03/28 02:04:03;;;;;;;12.35;7.15;;;7.40;99.90;;;;;;4970188;28;20047;-73
2022/03/28 02:06:28;;;;;;;13.60;7.47;;;8.40;99.90;;;;;;4970080;28;20492;-72
2022/03/28 02:08:54;;;;;;;12.20;6.90;;;7.40;99.90;;;;;;4970536;28;20035;-72
2022/03/28 02:11:20;;;;;;;14.00;7.32;;;8.50;99.90;;;;;;4967288;28;20039;-72
2022/03/28 02:13:46;;;;;;;12.07;6.85;;;7.40;99.90;;;;;;4970174;28;20074;-72
2022/03/28 02:16:12;;;;;;;8.18;6.25;;;7.40;99.90;;;;;;4969080;28;20459;-72
2022/03/28 02:18:41;;;;;;;11.02;6.55;;;7.50;99.90;;;;;;4969982;28;20042;-72
2022/03/28 02:21:06;;;;;;;8.55;6.18;;;7.50;99.90;;;;;;4954193;28;20055;-72
2022/03/28 02:23:32;;;;;;;9.45;6.28;;;7.40;99.90;;;;;;4972622;28;20403;-72
2022/03/28 02:25:58;;;;;;;10.63;6.60;;;7.40;99.90;;;;;;4969897;28;20258;-74
2022/03/28 02:28:24;;;;;;;8.55;5.70;;;7.30;99.90;;;;;;4989286;28;20042;-73
2022/03/28 02:30:49;;;;;;;8.88;6.00;;;7.40;99.90;;;;;;4987793;28;20388;-74
2022/03/28 02:33:15;;;;;;;9.43;6.00;;;7.30;99.90;;;;;;4990232;28;20140;-74
2022/03/28 02:35:41;;;;;;;9.13;6.60;;;7.30;99.90;;;;;;4989299;28;20050;-74
2022/03/28 02:38:07;;;;;;;9.07;6.22;;;7.30;99.90;;;;;;4988229;28;20050;-74
2022/03/28 02:40:34;;;;;;;10.63;7.47;;;7.20;99.90;;;;;;4988076;28;20121;-74
2022/03/28 02:43:00;;;;;;;10.32;6.88;;;7.20;99.90;;;;;;4988749;28;20125;-74
2022/03/28 02:45:27;;;;;;;11.93;7.13;;;7.20;99.90;;;;;;4987222;28;20042;-74
2022/03/28 02:47:53;;;;;;;10.43;7.68;;;7.10;99.90;;;;;;4988532;28;20487;-73
2022/03/28 02:50:19;;;;;;;10.20;7.22;;;7.10;99.90;;;;;;4989141;28;20045;-74
2022/03/28 02:52:44;;;;;;;10.38;7.63;;;7.10;99.90;;;;;;4988723;28;20042;-73
2022/03/28 02:55:10;;;;;;;11.32;7.40;;;7.10;99.90;;;;;;4988080;28;20089;-73
2022/03/28 02:57:37;;;;;;;12.25;7.57;;;7.10;99.90;;;;;;4989239;28;20510;-74
2022/03/28 03:00:07;;;;;;;12.10;7.32;;;7.10;99.90;;;;;;4988184;28;20042;-73
2022/03/28 03:02:38;;;;;;;11.10;6.93;;;7.10;99.90;;;;;;4988816;28;20082;-74
2022/03/28 03:05:05;;;;;;;12.88;7.07;;;7.00;99.90;;;;;;4988293;28;20053;-73
2022/03/28 03:07:31;;;;;;;11.10;7.30;;;7.00;99.90;;;;;;4988020;28;20046;-73
2022/03/28 03:09:56;;;;;;;10.07;7.00;;;7.10;99.90;;;;;;4987713;28;20034;-74
2022/03/28 03:12:22;;;;;;;7.72;5.63;;;7.00;99.90;;;;;;4987999;28;20096;-73
2022/03/28 03:14:48;;;;;;;10.98;5.18;;;7.00;99.90;;;;;;4972384;28;20050;-73
2022/03/28 03:17:13;;;;;;;8.10;5.07;;;7.00;99.90;;;;;;4987896;28;20038;-74
2022/03/28 03:19:40;;;;;;;7.43;4.60;;;6.90;99.90;;;;;;4983912;28;20039;-73
2022/03/28 03:22:09;;;;;;;6.13;4.53;;;7.00;99.90;;;;;;4987475;28;20054;-73
2022/03/28 03:24:34;;;;;;;6.80;4.47;;;7.00;99.90;;;;;;4988157;28;20379;-73
2022/03/28 03:27:01;;;;;;;7.45;5.03;;;8.20;99.90;;;;;;4969996;28;20039;-73
2022/03/28 03:29:27;;;;;;;7.03;4.50;;;6.00;99.90;;;;;;4988529;28;20037;-73
2022/03/28 03:31:53;;;;;;;8.32;5.05;;;6.80;99.90;;;;;;4988526;28;20122;-73
2022/03/28 03:34:19;;;;;;;8.70;4.90;;;6.70;99.90;;;;;;4988019;28;20524;-73
2022/03/28 03:36:45;;;;;;;8.63;5.25;;;6.80;99.90;;;;;;4988673;28;20053;-74
2022/03/28 03:39:11;;;;;;;7.22;4.75;;;6.80;99.90;;;;;;4988770;28;20503;-74
2022/03/28 03:41:37;;;;;;;8.02;5.07;;;7.80;99.90;;;;;;4985592;28;20088;-73
2022/03/28 03:44:03;;;;;;;8.93;5.38;;;8.30;99.90;;;;;;4988969;28;20180;-74
2022/03/28 03:46:29;;;;;;;8.38;5.28;;;6.80;99.90;;;;;;4970346;28;20550;-74
2022/03/28 03:48:55;;;;;;;8.40;5.30;;;6.80;99.90;;;;;;4971243;28;20125;-73
2022/03/28 03:51:21;;;;;;;8.23;5.47;;;6.80;99.90;;;;;;4987920;28;20057;-73
2022/03/28 03:53:47;;;;;;;11.27;5.90;;;6.80;99.90;;;;;;4971132;28;20042;-73
2022/03/28 03:56:12;;;;;;;8.05;5.40;;;6.70;99.90;;;;;;4968907;28;20050;-74
2022/03/28 03:58:38;;;;;;;7.63;4.90;;;6.70;99.90;;;;;;4973084;28;20046;-73
2022/03/28 04:01:04;;;;;;;8.55;4.82;;;6.70;99.90;;;;;;4970771;28;20050;-73
2022/03/28 04:03:30;;;;;;;7.20;4.93;;;6.80;99.90;;;;;;4987763;28;20049;-74
2022/03/28 04:05:55;;;;;;;8.00;4.63;;;6.70;99.90;;;;;;4956280;28;20039;-73
2022/03/28 04:08:21;;;;;;;6.93;4.57;;;6.60;99.90;;;;;;4987242;28;20405;-73
2022/03/28 04:10:47;;;;;;;6.25;4.30;;;6.60;99.90;;;;;;4968626;28;20050;-74
2022/03/28 04:13:13;;;;;;;5.50;3.90;;;6.60;99.90;;;;;;4987756;28;20053;-74
2022/03/28 04:15:39;;;;;;;5.50;3.55;;;6.60;99.90;;;;;;4988860;28;20038;-73
2022/03/28 04:18:05;;;;;;;6.18;4.05;;;6.60;99.90;;;;;;4971959;28;20515;-73
2022/03/28 04:20:32;;;;;;;5.55;3.20;;;6.60;99.90;;;;;;4987887;28;20436;-74
2022/03/28 04:22:58;;;;;;;5.93;3.60;;;6.60;99.90;;;;;;4987909;28;20086;-73
2022/03/28 04:25:24;;;;;;;5.25;3.40;;;6.60;99.90;;;;;;4986897;28;20034;-73
2022/03/28 04:27:50;;;;;;;5.82;3.38;;;6.60;99.90;;;;;;4970609;28;20110;-74
2022/03/28 04:30:16;;;;;;;5.82;3.20;;;6.70;99.90;;;;;;4991550;28;20553;-74
2022/03/28 04:32:42;;;;;;;6.00;3.38;;;6.70;99.90;;;;;;4973474;28;20038;-73
2022/03/28 04:35:09;;;;;;;5.50;3.22;;;6.60;99.90;;;;;;4991485;28;20463;-73
2022/03/28 04:37:39;;;;;;;4.97;3.17;;;6.60;99.90;;;;;;4990561;28;20050;-73
2022/03/28 04:40:08;;;;;;;4.93;3.20;;;6.60;99.90;;;;;;4990097;28;20038;-73
2022/03/28 04:42:34;;;;;;;3.72;2.38;;;8.00;99.90;;;;;;4990645;28;20093;-73
2022/03/28 04:45:00;;;;;;;4.10;2.40;;;6.60;99.90;;;;;;4982179;28;20038;-73
2022/03/28 04:47:26;;;;;;;3.42;2.25;;;6.60;99.90;;;;;;4973943;28;20050;-73
2022/03/28 04:49:52;;;;;;;3.53;2.45;;;6.60;99.90;;;;;;4972981;28;20109;-73
2022/03/28 04:52:18;;;;;;;3.90;2.22;;;6.50;99.90;;;;;;4973177;28;20480;-73
2022/03/28 04:54:44;;;;;;;4.07;2.47;;;6.50;99.90;;;;;;4990352;28;20039;-73
2022/03/28 04:57:10;;;;;;;5.25;3.08;;;6.50;99.90;;;;;;4989797;28;20039;-73
2022/03/28 04:59:35;;;;;;;4.32;2.67;;;6.50;99.90;;;;;;4973310;28;20379;-73
2022/03/28 05:02:01;;;;;;;5.75;3.05;;;6.50;99.90;;;;;;4973224;28;20042;-74
2022/03/28 05:04:27;;;;;;;4.82;3.05;;;6.60;99.90;;;;;;4972860;28;20092;-72
2022/03/28 05:06:53;;;;;;;5.35;3.30;;;6.50;99.90;;;;;;4973908;28;20048;-73
2022/03/28 05:09:21;;;;;;;6.10;3.80;;;6.50;99.90;;;;;;4973942;28;20038;-73
2022/03/28 05:11:46;;;;;;;6.15;4.13;;;6.50;99.90;;;;;;4988978;28;20424;-73
2022/03/28 05:14:12;;;;;;;8.50;5.15;;;6.50;99.90;;;;;;4972800;28;20129;-73
2022/03/28 05:16:38;;;;;;;9.25;5.65;;;6.50;99.90;;;;;;4990077;28;20506;-73
2022/03/28 05:19:04;;;;;;;9.38;5.88;;;6.50;99.90;;;;;;4970437;28;20262;-73
2022/03/28 05:21:30;;;;;;;9.93;6.70;;;6.50;99.90;;;;;;4980918;28;20073;-73
2022/03/28 05:23:56;;;;;;;9.82;6.70;;;6.50;99.90;;;;;;4973375;28;20454;-73
2022/03/28 05:26:21;;;;;;;10.07;6.88;;;6.40;99.90;;;;;;4988804;28;20097;-73
2022/03/28 05:28:47;;;;;;;10.77;6.75;;;6.50;99.90;;;;;;4989710;28;20035;-73
2022/03/28 05:31:13;;;;;;;10.82;6.60;;;6.50;99.90;;;;;;4990250;28;20056;-73
2022/03/28 05:33:38;;;;;;;9.63;6.32;;;6.50;99.90;;;;;;4956934;28;20442;-73
2022/03/28 05:36:04;;;;;;;11.13;6.70;;;6.30;99.90;;;;;;4972022;28;20500;-74
2022/03/28 05:38:30;;;;;;;12.05;6.80;;;6.50;99.90;;;;;;4973073;28;20399;-73
2022/03/28 05:40:57;;;;;;;11.52;6.78;;;6.50;99.90;;;;;;4987512;28;20042;-74
2022/03/28 05:43:24;;;;;;;8.95;6.47;;;7.20;99.90;;;;;;4990159;28;20064;-73
2022/03/28 05:45:50;;;;;;;11.30;7.57;;;7.80;99.90;;;;;;4988590;28;20038;-74
2022/03/28 05:48:16;;;;;;;10.40;6.75;;;6.40;99.90;;;;;;4972206;28;20060;-73
2022/03/28 05:50:42;;;;;;;11.57;6.85;;;6.50;99.90;;;;;;4989326;28;20057;-73
2022/03/28 05:53:08;;;;;;;12.15;7.05;;;6.50;99.90;;;;;;4989781;28;20046;-73
2022/03/28 05:55:33;;;;;;;11.63;7.38;;;6.50;99.90;;;;;;4991202;28;20049;-73
2022/03/28 05:58:00;;;;;;;12.90;7.47;;;6.50;99.90;;;;;;4989552;28;20053;-73
2022/03/28 06:00:25;;;;;;;12.60;7.57;;;6.50;99.90;;;;;;4989565;28;20048;-73
2022/03/28 06:02:51;;;;;;;11.65;7.95;;;6.50;99.90;;;;;;4988792;28;20042;-73
2022/03/28 06:05:17;;;;;;;12.05;8.07;;;6.50;99.90;;;;;;4970939;28;20450;-73
2022/03/28 06:07:43;;;;;;;10.25;7.45;;;6.50;99.90;;;;;;4955539;28;20189;-73
2022/03/28 06:10:09;;;;;;;11.38;8.38;;;6.60;99.90;;;;;;4985116;28;20142;-74
2022/03/28 06:12:34;;;;;;;13.40;8.18;;;6.60;99.90;;;;;;4989014;28;20121;-73
2022/03/28 06:15:01;;;;;;;15.70;8.55;;;6.60;99.90;;;;;;4989295;28;20432;-73
2022/03/28 06:17:27;;;;;;;13.77;8.30;;;6.90;99.90;;;;;;4989266;28;20058;-73
2022/03/28 06:19:55;;;;;;;12.48;8.77;;;6.50;99.90;;;;;;4989120;28;20064;-73
2022/03/28 06:22:21;;;;;;;11.48;8.30;;;6.50;99.90;;;;;;4988613;28;20552;-73
2022/03/28 06:24:47;;;;;;;10.20;8.00;;;6.60;99.90;;;;;;4987108;28;20062;-73
2022/03/28 06:27:14;;;;;;;15.68;9.13;;;6.60;99.90;;;;;;4954800;28;20237;-73
2022/03/28 06:29:40;;;;;;;12.73;8.68;;;6.60;99.90;;;;;;4988905;28;20415;-72
2022/03/28 06:32:06;;;;;;;12.35;9.30;;;5.60;99.90;;;;;;4970632;28;20042;-74
2022/03/28 06:34:32;;;;;;;14.43;10.23;;;6.60;99.90;;;;;;4988541;28;20436;-73
2022/03/28 06:36:57;;;;;;;13.57;10.05;;;6.60;99.90;;;;;;4989186;28;20129;-72
2022/03/28 06:39:23;;;;;;;14.68;9.52;;;6.60;99.90;;;;;;4988570;28;20403;-72
2022/03/28 06:41:49;;;;;;;13.80;9.13;;;6.70;99.90;;;;;;4986898;28;20148;-73
2022/03/28 06:44:16;;;;;;;11.20;8.98;;;6.70;99.90;;;;;;4970487;28;20042;-73
2022/03/28 06:46:49;;;;;;;12.02;8.50;;;6.80;99.90;;;;;;4988430;28;20057;-73
2022/03/28 06:49:14;;;;;;;11.80;8.40;;;7.40;99.90;;;;;;4973267;28;20069;-72
2022/03/28 06:51:40;;;;;;;11.55;8.65;;;6.80;99.90;;;;;;4986199;28;20077;-73
2022/03/28 06:54:08;;;;;;;14.43;9.43;;;6.90;99.90;;;;;;4969419;28;20047;-72
2022/03/28 06:56:35;;;;;;;12.18;9.70;;;6.90;99.90;;;;;;4966467;28;20086;-73
2022/03/28 06:59:01;;;;;;;14.70;10.48;;;6.90;99.90;;;;;;4974011;28;20049;-74
2022/03/28 07:01:26;;;;;;;14.80;9.88;;;7.90;99.90;;;;;;4987968;28;20038;-73
2022/03/28 07:03:53;;;;;;;13.48;10.57;;;6.90;99.90;;;;;;4987722;28;20050;-72
2022/03/28 07:06:19;;;;;;;13.63;10.07;;;6.90;99.90;;;;;;4987705;28;20057;-73
2022/03/28 07:08:44;;;;;;;14.88;10.60;;;6.90;99.90;;;;;;4988468;28;20043;-73
2022/03/28 07:11:10;;;;;;;15.10;10.38;;;7.00;99.90;;;;;;4986138;28;20085;-73
2022/03/28 07:13:36;;;;;;;17.52;12.63;;;7.00;99.90;;;;;;4970213;28;20062;-72
2022/03/28 07:16:01;;;;;;;16.58;11.70;;;7.00;99.90;;;;;;4970873;28;20039;-72
2022/03/28 07:18:27;;;;;;;20.98;13.55;;;7.10;99.90;;;;;;4971245;28;20129;-72
2022/03/28 07:20:53;;;;;;;22.23;14.23;;;7.10;99.90;;;;;;4969453;28;20047;-72
2022/03/28 07:23:19;;;;;;;21.83;14.02;;;7.30;99.90;;;;;;4987630;28;20415;-72
2022/03/28 07:25:46;;;;;;;21.38;14.27;;;7.20;99.90;;;;;;4986257;28;20062;-73
2022/03/28 07:28:13;;;;;;;19.98;14.38;;;7.20;99.90;;;;;;4969970;28;20050;-73
2022/03/28 07:30:40;;;;;;;24.20;15.48;;;7.20;99.90;;;;;;4990198;28;20050;-73
2022/03/28 07:33:07;;;;;;;25.60;15.55;;;8.50;99.90;;;;;;4971313;28;20046;-73
2022/03/28 07:35:35;;;;;;;22.40;15.32;;;7.30;99.90;;;;;;4987127;28;20121;-73
2022/03/28 07:38:02;;;;;;;20.35;14.25;;;7.30;99.90;;;;;;4987891;28;20060;-73
2022/03/28 07:40:28;;;;;;;16.88;11.48;;;7.40;99.90;;;;;;4986947;28;20058;-72
2022/03/28 07:42:54;;;;;;;16.85;12.60;;;7.40;99.90;;;;;;4969335;28;20035;-73
2022/03/28 07:45:23;;;;;;;23.55;14.65;;;7.50;99.90;;;;;;4970606;28;20073;-73
2022/03/28 07:47:52;;;;;;;20.60;14.60;;;7.50;99.90;;;;;;4969726;28;20057;-72
2022/03/28 07:50:18;;;;;;;19.60;13.43;;;7.50;99.90;;;;;;4971360;28;20125;-72
2022/03/28 07:52:44;;;;;;;21.15;15.40;;;7.50;99.90;;;;;;4954076;28;20133;-72
2022/03/28 07:55:12;;;;;;;24.15;14.63;;;7.50;99.90;;;;;;4986855;28;20050;-72
2022/03/28 07:57:38;;;;;;;26.20;17.17;;;8.30;99.90;;;;;;4969813;28;20117;-72
2022/03/28 08:00:06;;;;;;;26.08;18.20;;;8.90;99.90;;;;;;4987424;28;20086;-72
2022/03/28 08:02:32;;;;;;;26.20;18.58;;;7.60;99.90;;;;;;4970999;28;20078;-74
2022/03/28 08:04:58;;;;;;;25.98;17.33;;;7.60;99.90;;;;;;4991412;28;20164;-69
2022/03/28 08:07:23;;;;;;;25.23;18.42;;;7.60;99.90;;;;;;4974083;28;20129;-69
2022/03/28 08:09:49;;;;;;;28.58;19.40;;;7.70;99.90;;;;;;4989678;28;20415;-71
2022/03/28 08:12:15;;;;;;;25.75;17.75;;;7.70;99.90;;;;;;4991142;28;20046;-70
2022/03/28 08:14:41;;;;;;;23.13;16.52;;;7.10;99.90;;;;;;4991115;28;20468;-70
2022/03/28 08:17:06;;;;;;;22.10;16.27;;;7.90;99.90;;;;;;4990444;28;20050;-69
2022/03/28 08:19:32;;;;;;;23.40;16.67;;;8.00;99.90;;;;;;4973677;28;20451;-69
2022/03/28 08:21:58;;;;;;;22.50;16.00;;;8.00;99.90;;;;;;4992366;28;20054;-69
2022/03/28 08:24:24;;;;;;;19.10;14.07;;;8.00;99.90;;;;;;4973401;28;20484;-69
2022/03/28 08:26:50;;;;;;;20.35;14.38;;;9.30;99.90;;;;;;4990149;28;20602;-70
2022/03/28 08:29:16;;;;;;;21.13;14.65;;;8.00;99.90;;;;;;4991298;28;20475;-70
2022/03/28 08:31:42;;;;;;;19.17;14.75;;;7.40;99.90;;;;;;4990402;28;20050;-69
2022/03/28 08:34:08;;;;;;;20.10;14.02;;;8.10;99.90;;;;;;4975876;28;20050;-70
2022/03/28 08:36:35;;;;;;;17.00;13.40;;;8.10;99.90;;;;;;4990302;28;20050;-70
2022/03/28 08:39:02;;;;;;;18.58;13.27;;;8.10;99.90;;;;;;4973862;28;20042;-69
2022/03/28 08:41:28;;;;;;;17.65;13.52;;;8.20;99.90;;;;;;4988832;28;20085;-68
2022/03/28 08:43:53;;;;;;;19.45;13.75;;;8.00;99.90;;;;;;4973238;28;20046;-69
2022/03/28 08:46:19;;;;;;;18.42;14.25;;;8.00;99.90;;;;;;4991122;28;20046;-70
2022/03/28 08:48:45;;;;;;;19.40;13.82;;;8.10;99.90;;;;;;4991661;28;20034;-69
2022/03/28 08:51:13;;;;;;;19.60;14.02;;;8.10;99.90;;;;;;4972831;28;20050;-68
2022/03/28 08:53:39;;;;;;;19.90;14.98;;;8.20;99.90;;;;;;4972770;28;20042;-69
2022/03/28 08:56:08;;;;;;;22.38;14.43;;;8.30;99.90;;;;;;4971628;28;20145;-70
2022/03/28 08:58:34;;;;;;;19.55;14.80;;;8.40;99.90;;;;;;4972078;28;20046;-69
2022/03/28 09:01:01;;;;;;;18.05;14.43;;;8.40;99.90;;;;;;4990447;28;20058;-68
2022/03/28 09:03:41;;;;;;;18.67;14.57;;;8.40;99.90;;;;;;4990016;28;20046;-69
2022/03/28 09:06:28;;;;;;;19.13;13.70;;;8.40;99.90;;;;;;4989413;28;20105;-69
2022/03/28 09:08:54;;;;;;;19.10;13.57;;;8.40;99.90;;;;;;4984801;28;20137;-68
2022/03/28 09:11:22;;;;;;;21.45;14.55;;;8.50;99.90;;;;;;4967684;28;20129;-68
2022/03/28 09:13:48;;;;;;;19.60;13.93;;;9.00;99.90;;;;;;4978811;28;20125;-71
2022/03/28 09:16:20;;;;;;;20.85;14.18;;;8.60;99.90;;;;;;4972682;28;20114;-70
2022/03/28 09:18:46;;;;;;;20.73;14.00;;;9.30;99.90;;;;;;4989927;28;20047;-69
2022/03/28 09:21:16;;;;;;;18.55;13.32;;;8.80;99.90;;;;;;4989467;28;20101;-69
2022/03/28 09:23:48;;;;;;;18.88;14.00;;;8.80;99.90;;;;;;4954244;28;20053;-70
2022/03/28 09:26:20;;;;;;;20.80;13.73;;;8.90;99.90;;;;;;4987159;28;20053;-69
2022/03/28 09:28:48;;;;;;;21.50;13.82;;;8.90;99.90;;;;;;4988953;28;20038;-70
2022/03/28 09:31:17;;;;;;;18.92;14.38;;;9.00;99.90;;;;;;4972290;28;20367;-69
2022/03/28 09:34:09;;;;;;;24.75;13.98;;;9.10;99.90;;;;;;4969876;28;20045;-70
2022/03/28 09:36:53;;;;;;;18.83;13.98;;;9.20;99.90;;;;;;4982320;28;20053;-71
2022/03/28 09:39:23;;;;;;;17.88;14.00;;;10.30;99.90;;;;;;4973529;28;20055;-70
2022/03/28 09:42:05;;;;;;;19.77;13.88;;;9.40;99.90;;;;;;4988095;28;20514;-70
2022/03/28 09:44:33;;;;;;;20.60;13.45;;;9.40;99.90;;;;;;4989456;28;20046;-69
2022/03/28 09:47:11;;;;;;;20.15;13.63;;;9.50;99.90;;;;;;4989050;28;20192;-70
2022/03/28 09:49:38;;;;;;;17.92;13.88;;;9.50;99.90;;;;;;4989439;28;20410;-69
2022/03/28 09:52:12;;;;;;;19.70;13.48;;;9.60;99.90;;;;;;4989205;28;20045;-69
2022/03/28 09:54:56;;;;;;;20.73;14.23;;;9.50;99.90;;;;;;4969718;28;20047;-69
2022/03/28 09:57:24;;;;;;;22.63;14.25;;;9.40;99.90;;;;;;4981052;28;20121;-68
2022/03/28 09:59:52;;;;;;;20.25;14.35;;;9.40;99.90;;;;;;4968338;28;20097;-69
2022/03/28 10:02:18;;;;;;;18.02;13.38;;;9.40;99.90;;;;;;4971854;28;20050;-69
2022/03/28 10:04:46;;;;;;;22.30;13.95;;;9.50;99.90;;;;;;4971914;28;20484;-69
2022/03/28 10:07:11;;;;;;;15.00;12.35;;;9.60;99.90;;;;;;4989298;28;20058;-69
2022/03/28 10:09:39;;;;;;;17.83;12.05;;;9.60;99.90;;;;;;4989478;28;20038;-69
2022/03/28 10:12:06;;;;;;;18.40;12.07;;;9.80;99.90;;;;;;4973194;28;20057;-69
2022/03/28 10:14:32;;;;;;;17.17;12.27;;;9.90;99.90;;;;;;4989391;28;20038;-69
2022/03/28 10:17:02;;;;;;;14.60;12.00;;;10.00;99.90;;;;;;4988326;28;20118;-69
2022/03/28 10:19:30;;;;;;;16.60;12.80;;;10.10;99.90;;;;;;4989570;28;20403;-69
2022/03/28 10:21:57;;;;;;;16.70;12.88;;;10.10;99.90;;;;;;4988268;28;20050;-70
2022/03/28 10:24:25;;;;;;;15.25;12.95;;;10.20;99.90;;;;;;4987835;28;20073;-69
2022/03/28 10:26:57;;;;;;;16.67;12.95;;;10.40;99.90;;;;;;4968442;28;20058;-69
2022/03/28 10:29:33;;;;;;;17.48;12.73;;;10.50;99.90;;;;;;4988393;28;20102;-70
2022/03/28 10:32:01;;;;;;;15.23;12.07;;;10.60;99.90;;;;;;4988674;28;20062;-69
2022/03/28 10:34:46;;;;;;;14.70;11.95;;;10.70;99.90;;;;;;4988893;28;20499;-70
2022/03/28 10:37:29;;;;;;;15.40;12.35;;;10.80;99.90;;;;;;4970839;28;20058;-69
2022/03/28 10:40:29;;;;;;;15.75;12.43;;;10.90;99.90;;;;;;4987150;28;20491;-70
2022/03/28 10:43:11;;;;;;;15.20;12.80;;;11.00;99.90;;;;;;4969943;28;20054;-70
2022/03/28 10:45:53;;;;;;;18.95;13.23;;;11.10;99.90;;;;;;4987832;28;20046;-71
2022/03/28 10:48:47;;;;;;;15.05;12.27;;;11.80;99.90;;;;;;4988656;28;20456;-70
2022/03/28 10:51:21;;;;;;;16.25;12.80;;;11.30;99.90;;;;;;4987960;28;20042;-70
2022/03/28 10:53:56;;;;;;;16.25;12.40;;;11.30;99.90;;;;;;4987450;28;20472;-71
2022/03/28 10:56:32;;;;;;;18.73;12.90;;;11.30;99.90;;;;;;4984318;28;20042;-70
2022/03/28 10:59:03;;;;;;;13.80;11.43;;;11.40;99.90;;;;;;4987452;28;20038;-70
2022/03/28 11:01:36;;;;;;;14.63;11.52;;;11.50;99.90;;;;;;4987618;28;20042;-70
2022/03/28 11:04:23;;;;;;;15.43;12.90;;;11.80;99.90;;;;;;4989276;28;20057;-69
2022/03/28 11:07:07;;;;;;;16.38;12.15;;;12.20;99.90;;;;;;4986888;28;20056;-69
2022/03/28 11:09:45;;;;;;;18.00;13.25;;;12.40;99.90;;;;;;4971617;28;20045;-69
2022/03/28 11:12:37;;;;;;;14.52;11.85;;;12.60;99.90;;;;;;4988088;28;20046;-70
2022/03/28 11:15:12;;;;;;;18.33;12.45;;;12.70;99.90;;;;;;4970483;28;20487;-68
2022/03/28 11:17:55;;;;;;;17.73;12.77;;;12.70;99.90;;;;;;4991197;28;20074;-69
2022/03/28 11:20:23;;;;;;;17.25;12.60;;;12.90;99.90;;;;;;4986575;28;20444;-70
2022/03/28 11:22:57;;;;;;;14.98;11.88;;;13.60;99.90;;;;;;4968796;28;20388;-71
2022/03/28 11:25:44;;;;;;;15.70;12.00;;;13.50;99.90;;;;;;4988284;28;20423;-71
2022/03/28 11:28:18;;;;;;;14.75;12.25;;;13.90;99.90;;;;;;4986718;28;20054;-71
2022/03/28 11:30:44;;;;;;;15.65;12.60;;;14.40;99.90;;;;;;4983970;28;20061;-72
2022/03/28 11:33:11;;;;;;;17.02;11.32;;;14.70;99.90;;;;;;4984418;28;20054;-71
2022/03/28 11:35:38;;;;;;;14.48;11.60;;;15.10;99.90;;;;;;4968669;28;20082;-72
2022/03/28 11:38:05;;;;;;;15.30;11.63;;;15.50;99.90;;;;;;4971916;28;20069;-72
2022/03/28 11:40:41;;;;;;;13.70;10.90;;;16.00;99.90;;;;;;4972319;28;20482;-71
2022/03/28 11:43:09;;;;;;;13.77;11.13;;;16.50;99.90;;;;;;4987082;28;20046;-72
2022/03/28 11:45:36;;;;;;;12.57;10.65;;;17.60;99.90;;;;;;4991211;28;20057;-72
2022/03/28 11:48:03;;;;;;;13.32;10.48;;;18.70;99.90;;;;;;4989080;28;20144;-72
2022/03/28 11:50:32;;;;;;;13.73;10.38;;;20.00;99.90;;;;;;4973076;28;20061;-73
2022/03/28 11:52:58;;;;;;;11.73;9.50;;;21.20;98.60;;;;;;4992819;28;20038;-73
2022/03/28 11:55:26;;;;;;;11.68;10.18;;;23.20;96.00;;;;;;4989596;28;20085;-73
2022/03/28 12:00:38;;;;;;;;;;;25.20;91.40;;;;;;4990424;28;20113;-73
2022/03/28 12:03:04;;;;;;;;;;;24.90;86.20;;;;;;4991677;28;19925;-73
2022/03/28 12:05:32;;;;;;;12.88;9.75;;;24.80;84.80;;;;;;4991833;28;19926;-72
2022/03/28 12:08:00;;;;;;;14.82;9.57;;;25.60;85.80;;;;;;4990906;28;20046;-72
2022/03/28 12:10:28;;;;;;;10.48;9.32;;;25.90;79.20;;;;;;4971771;28;20218;-75
2022/03/28 12:12:56;;;;;;;13.70;9.27;;;25.30;78.80;;;;;;4954294;28;20412;-72
2022/03/28 12:15:30;;;;;;;11.05;9.00;;;25.50;81.10;;;;;;4978989;28;20483;-73
2022/03/28 12:17:58;;;;;;;11.07;9.20;;;25.90;78.80;;;;;;4990257;28;20196;-72
2022/03/28 12:20:27;;;;;;;12.98;9.30;;;26.00;75.00;;;;;;4973303;28;20081;-73
2022/03/28 12:22:52;;;;;;;11.93;9.50;;;25.30;76.50;;;;;;4970898;28;20138;-73
2022/03/28 12:25:24;;;;;;;12.02;8.70;;;24.70;77.80;;;;;;4970621;28;20126;-72
2022/03/28 12:27:59;;;;;;;10.38;8.55;;;24.70;76.60;;;;;;4953644;28;20470;-73
2022/03/28 12:30:31;;;;;;;11.90;9.07;;;24.90;75.30;;;;;;4965362;28;20054;-72
2022/03/28 12:32:57;;;;;;;12.27;9.13;;;24.20;77.20;;;;;;4989025;28;20114;-72
2022/03/28 12:35:23;;;;;;;12.50;8.93;;;24.50;77.40;;;;;;4991309;28;20060;-73
2022/03/28 12:37:57;;;;;;;11.80;8.50;;;24.50;78.20;;;;;;4967635;28;20129;-73
2022/03/28 12:40:28;;;;;;;12.48;9.10;;;25.00;74.00;;;;;;4956826;28;20420;-73
2022/03/28 12:42:55;;;;;;;9.73;8.45;;;24.50;75.50;;;;;;4972107;28;20502;-73
2022/03/28 12:45:26;;;;;;;10.95;8.77;;;24.10;76.90;;;;;;4989918;28;20429;-73
2022/03/28 12:48:12;;;;;;;11.02;7.97;;;23.30;79.40;;;;;;4991445;28;20101;-74
2022/03/28 12:50:58;;;;;;;11.85;8.25;;;22.70;82.60;;;;;;4964945;28;20092;-73
2022/03/28 12:53:29;;;;;;;11.35;7.93;;;22.70;83.30;;;;;;4982958;28;20112;-74